createdAt,value
2018-05-09T00:01:36.951Z,14.10
2018-05-09T00:04:05.249Z,14.00
2018-05-09T00:06:32.745Z,14.00
2018-05-09T00:09:00.245Z,14.00
2018-05-09T00:11:28.587Z,13.90
2018-05-09T00:13:56.182Z,13.80
2018-05-09T00:16:23.780Z,13.80
2018-05-09T00:18:51.318Z,13.70
2018-05-09T00:21:18.872Z,13.70
2018-05-09T00:23:46.366Z,13.60
2018-05-09T00:26:13.903Z,13.60
2018-05-09T00:28:41.429Z,13.50
2018-05-09T00:31:10.318Z,13.50
2018-05-09T00:33:38.590Z,13.40
2018-05-09T00:36:06.860Z,13.40
2018-05-09T00:38:35.155Z,13.40
2018-05-09T00:41:02.697Z,13.40
2018-05-09T00:43:30.981Z,13.30
2018-05-09T00:45:59.261Z,13.20
2018-05-09T00:48:27.554Z,13.20
2018-05-09T00:50:55.035Z,13.20
2018-05-09T00:53:22.590Z,13.10
2018-05-09T00:55:50.097Z,13.10
2018-05-09T00:58:18.402Z,13.00
2018-05-09T01:00:45.955Z,13.00
2018-05-09T01:03:13.453Z,12.90
2018-05-09T01:05:40.983Z,12.90
2018-05-09T01:08:08.489Z,12.90
2018-05-09T01:10:36.043Z,12.80
2018-05-09T01:13:03.540Z,12.80
2018-05-09T01:15:31.849Z,12.70
2018-05-09T01:18:00.317Z,12.70
2018-05-09T01:20:27.854Z,12.70
2018-05-09T01:22:56.110Z,12.60
2018-05-09T01:25:23.644Z,12.60
2018-05-09T01:27:51.181Z,12.60
2018-05-09T01:30:18.663Z,12.50
2018-05-09T01:32:46.195Z,12.50
2018-05-09T01:35:13.698Z,12.40
2018-05-09T01:37:41.231Z,12.40
2018-05-09T01:40:08.738Z,12.40
2018-05-09T01:42:37.046Z,12.30
2018-05-09T01:45:04.575Z,12.30
2018-05-09T01:47:32.851Z,12.20
2018-05-09T01:50:01.130Z,12.20
2018-05-09T01:52:28.646Z,12.20
2018-05-09T01:54:56.256Z,12.20
2018-05-09T01:57:23.704Z,12.20
2018-05-09T01:59:51.979Z,12.10
2018-05-09T02:02:20.250Z,12.10
2018-05-09T02:04:48.557Z,12.00
2018-05-09T02:07:16.093Z,12.00
2018-05-09T02:09:45.271Z,12.00
2018-05-09T02:12:14.392Z,12.00
2018-05-09T02:14:41.945Z,12.00
2018-05-09T02:17:09.466Z,11.90
2018-05-09T02:19:37.006Z,11.90
2018-05-09T02:22:04.502Z,11.90
2018-05-09T02:24:32.779Z,11.90
2018-05-09T02:27:01.048Z,11.90
2018-05-09T02:29:28.579Z,11.80
2018-05-09T02:31:56.099Z,11.90
2018-05-09T02:34:23.631Z,11.80
2018-05-09T02:36:51.920Z,11.80
2018-05-09T02:39:20.688Z,11.80
2018-05-09T02:41:48.187Z,11.80
2018-05-09T02:44:15.724Z,11.80
2018-05-09T02:46:44.064Z,11.70
2018-05-09T02:49:11.604Z,11.70
2018-05-09T02:51:39.134Z,11.70
2018-05-09T02:54:07.558Z,11.70
2018-05-09T02:56:35.124Z,11.60
2018-05-09T02:59:02.759Z,11.60
2018-05-09T03:01:30.846Z,11.60
2018-05-09T03:03:58.377Z,11.60
2018-05-09T03:06:25.888Z,11.50
2018-05-09T03:08:53.371Z,11.60
2018-05-09T03:11:21.661Z,11.60
2018-05-09T03:13:49.194Z,11.50
2018-05-09T03:16:17.461Z,11.50
2018-05-09T03:18:45.720Z,11.50
2018-05-09T03:21:13.233Z,11.40
2018-05-09T03:23:40.756Z,11.50
2018-05-09T03:26:09.040Z,11.40
2018-05-09T03:28:37.309Z,11.40
2018-05-09T03:31:05.587Z,11.40
2018-05-09T03:33:33.879Z,11.40
2018-05-09T03:36:02.307Z,11.40
2018-05-09T03:38:29.900Z,11.40
2018-05-09T03:40:58.908Z,11.30
2018-05-09T03:43:26.446Z,11.30
2018-05-09T03:45:54.712Z,11.40
2018-05-09T03:48:22.221Z,11.30
2018-05-09T03:50:49.749Z,11.40
2018-05-09T03:53:18.051Z,11.40
2018-05-09T03:55:46.337Z,11.40
2018-05-09T03:58:13.869Z,11.30
2018-05-09T04:00:42.921Z,11.40
2018-05-09T04:03:22.484Z,11.40
2018-05-09T04:06:02.606Z,11.50
2018-05-09T04:08:42.193Z,11.40
2018-05-09T04:11:11.242Z,11.50
2018-05-09T04:13:38.775Z,11.50
2018-05-09T04:16:06.257Z,11.60
2018-05-09T04:18:33.821Z,11.70
2018-05-09T04:21:01.435Z,11.80
2018-05-09T04:23:28.888Z,11.90
2018-05-09T04:25:56.414Z,12.10
2018-05-09T04:28:23.895Z,12.40
2018-05-09T04:30:52.923Z,13.00
2018-05-09T04:33:20.416Z,12.90
2018-05-09T04:35:48.441Z,13.20
2018-05-09T04:38:15.949Z,13.50
2018-05-09T04:40:43.464Z,13.70
2018-05-09T04:43:10.956Z,14.00
2018-05-09T04:45:38.472Z,14.20
2018-05-09T04:48:06.020Z,14.40
2018-05-09T04:50:34.292Z,14.80
2018-05-09T04:53:01.818Z,14.80
2018-05-09T04:55:29.352Z,15.00
2018-05-09T04:57:56.831Z,15.10
2018-05-09T05:00:24.356Z,15.30
2018-05-09T05:02:51.854Z,15.50
2018-05-09T05:05:19.351Z,15.80
2018-05-09T05:07:46.874Z,16.40
2018-05-09T05:10:14.380Z,17.20
2018-05-09T05:12:42.356Z,17.30
2018-05-09T05:15:09.854Z,17.60
2018-05-09T05:17:37.349Z,18.20
2018-05-09T05:20:04.870Z,18.30
2018-05-09T05:22:32.391Z,18.20
2018-05-09T05:25:00.001Z,18.10
2018-05-09T05:27:27.454Z,18.00
2018-05-09T05:29:55.713Z,18.10
2018-05-09T05:32:23.251Z,18.10
2018-05-09T05:34:51.227Z,18.20
2018-05-09T05:37:18.760Z,18.30
2018-05-09T05:39:47.009Z,18.40
2018-05-09T05:42:15.323Z,18.70
2018-05-09T05:44:42.828Z,18.70
2018-05-09T05:47:10.370Z,18.80
2018-05-09T05:49:38.827Z,18.90
2018-05-09T05:52:06.385Z,19.00
2018-05-09T05:54:33.880Z,19.10
2018-05-09T05:57:02.283Z,19.20
2018-05-09T05:59:30.549Z,19.30
2018-05-09T06:01:58.810Z,19.30
2018-05-09T06:04:26.335Z,19.30
2018-05-09T06:06:54.549Z,19.30
2018-05-09T06:09:22.841Z,19.50
2018-05-09T06:11:50.464Z,19.50
2018-05-09T06:14:18.034Z,19.50
2018-05-09T06:16:45.586Z,19.50
2018-05-09T06:19:13.140Z,19.40
2018-05-09T06:21:40.627Z,19.30
2018-05-09T06:24:08.956Z,19.20
2018-05-09T06:26:36.880Z,19.10
2018-05-09T06:29:10.267Z,19.20
2018-05-09T06:31:38.347Z,19.20
2018-05-09T06:34:07.796Z,19.40
2018-05-09T06:36:35.484Z,19.30
2018-05-09T06:39:03.038Z,19.40
2018-05-09T06:41:31.085Z,19.40
2018-05-09T06:44:00.267Z,19.70
2018-05-09T06:46:27.900Z,19.60
2018-05-09T06:48:56.989Z,19.80
2018-05-09T06:51:25.286Z,20.00
2018-05-09T06:53:52.824Z,19.90
2018-05-09T06:56:21.135Z,20.20
2018-05-09T06:58:48.927Z,20.20
2018-05-09T07:01:17.419Z,20.50
2018-05-09T07:03:45.798Z,20.50
2018-05-09T07:06:14.044Z,20.40
2018-05-09T07:08:41.537Z,20.50
2018-05-09T07:11:09.049Z,20.60
2018-05-09T07:13:36.592Z,20.70
2018-05-09T07:16:05.306Z,20.90
2018-05-09T07:18:33.684Z,21.10
2018-05-09T07:21:01.350Z,21.00
2018-05-09T07:23:28.912Z,21.20
2018-05-09T07:25:56.455Z,21.30
2018-05-09T07:28:24.013Z,21.40
2018-05-09T07:30:51.551Z,21.60
2018-05-09T07:33:19.079Z,21.60
2018-05-09T07:35:47.474Z,21.80
2018-05-09T07:38:15.772Z,21.90
2018-05-09T07:40:43.315Z,21.90
2018-05-09T07:43:11.616Z,22.20
2018-05-09T07:45:39.159Z,22.10
2018-05-09T07:48:07.470Z,22.40
2018-05-09T07:50:35.723Z,22.40
2018-05-09T07:53:03.258Z,22.50
2018-05-09T07:55:31.607Z,22.70
2018-05-09T07:57:59.852Z,22.60
2018-05-09T08:00:27.404Z,22.80
2018-05-09T08:02:54.917Z,22.90
2018-05-09T08:05:24.257Z,23.10
2018-05-09T08:07:51.909Z,23.10
2018-05-09T08:10:19.442Z,23.10
2018-05-09T08:12:47.776Z,23.30
2018-05-09T08:15:15.300Z,23.30
2018-05-09T08:17:44.274Z,23.50
2018-05-09T08:20:12.580Z,23.60
2018-05-09T08:22:40.148Z,23.60
2018-05-09T08:25:08.520Z,23.60
2018-05-09T08:27:36.064Z,23.70
2018-05-09T08:30:04.528Z,23.80
2018-05-09T08:32:31.963Z,23.80
2018-05-09T08:34:59.484Z,23.90
2018-05-09T08:37:27.020Z,24.00
2018-05-09T08:39:54.608Z,24.10
2018-05-09T08:42:22.220Z,24.20
2018-05-09T08:44:50.947Z,24.40
2018-05-09T08:47:18.480Z,24.40
2018-05-09T08:49:47.112Z,24.50
2018-05-09T08:52:14.673Z,24.60
2018-05-09T08:54:43.032Z,24.70
2018-05-09T08:57:10.710Z,24.70
2018-05-09T08:59:38.711Z,24.70
2018-05-09T09:02:07.049Z,24.80
2018-05-09T09:04:34.727Z,24.80
2018-05-09T09:07:02.364Z,25.00
2018-05-09T09:09:31.276Z,25.10
2018-05-09T09:11:59.726Z,25.30
2018-05-09T09:14:27.339Z,25.30
2018-05-09T09:16:54.944Z,25.40
2018-05-09T09:19:22.493Z,25.40
2018-05-09T09:21:50.030Z,25.40
2018-05-09T09:24:18.347Z,25.40
2018-05-09T09:26:47.044Z,25.40
2018-05-09T09:29:14.633Z,25.50
2018-05-09T09:31:42.147Z,25.50
2018-05-09T09:34:09.672Z,25.60
2018-05-09T09:36:40.426Z,25.90
2018-05-09T09:39:07.968Z,25.80
2018-05-09T09:41:36.258Z,26.10
2018-05-09T09:44:03.953Z,26.10
2018-05-09T09:46:31.499Z,26.10
2018-05-09T09:48:59.020Z,26.20
2018-05-09T09:51:27.364Z,26.30
2018-05-09T09:53:54.997Z,26.30
2018-05-09T09:56:22.708Z,26.40
2018-05-09T09:58:50.231Z,26.40
2018-05-09T10:01:17.781Z,26.40
2018-05-09T10:03:45.312Z,26.50
2018-05-09T10:06:13.619Z,26.50
2018-05-09T10:08:41.857Z,26.50
2018-05-09T10:11:10.787Z,26.60
2018-05-09T10:13:39.075Z,26.60
2018-05-09T10:16:06.667Z,26.60
2018-05-09T10:18:34.163Z,26.60
2018-05-09T10:21:03.325Z,26.70
2018-05-09T10:23:31.680Z,26.70
2018-05-09T10:25:59.211Z,26.70
2018-05-09T10:28:26.725Z,26.70
2018-05-09T10:30:55.855Z,26.90
2018-05-09T10:33:23.399Z,26.90
2018-05-09T10:35:50.923Z,27.00
2018-05-09T10:38:18.443Z,27.00
2018-05-09T10:40:46.742Z,27.00
2018-05-09T10:43:14.274Z,26.80
2018-05-09T10:45:41.799Z,26.90
2018-05-09T10:48:10.065Z,26.80
2018-05-09T10:50:38.579Z,26.80
2018-05-09T10:53:06.076Z,26.80
2018-05-09T10:55:33.605Z,26.80
2018-05-09T10:58:01.744Z,26.80
2018-05-09T11:00:30.036Z,26.90
2018-05-09T11:02:57.598Z,26.90
2018-05-09T11:05:25.129Z,27.00
2018-05-09T11:07:53.500Z,27.10
2018-05-09T11:10:21.268Z,27.10
2018-05-09T11:12:48.792Z,27.10
2018-05-09T11:15:16.290Z,27.00
2018-05-09T11:17:44.614Z,27.20
2018-05-09T11:20:12.176Z,27.20
2018-05-09T11:22:39.741Z,27.20
2018-05-09T11:25:07.287Z,27.20
2018-05-09T11:27:34.782Z,27.30
2018-05-09T11:30:02.299Z,27.40
2018-05-09T11:32:31.165Z,27.50
2018-05-09T11:34:58.781Z,27.70
2018-05-09T11:37:27.156Z,27.80
2018-05-09T11:39:55.399Z,27.90
2018-05-09T11:42:22.954Z,27.90
2018-05-09T11:44:51.093Z,27.90
2018-05-09T11:47:19.433Z,28.10
2018-05-09T11:49:46.984Z,28.00
2018-05-09T11:52:15.009Z,28.10
2018-05-09T11:54:43.291Z,28.20
2018-05-09T11:57:11.674Z,28.20
2018-05-09T11:59:39.334Z,28.10
2018-05-09T12:02:06.895Z,28.10
2018-05-09T12:04:35.203Z,27.90
2018-05-09T12:07:02.752Z,27.80
2018-05-09T12:09:30.289Z,27.90
2018-05-09T12:11:57.823Z,28.00
2018-05-09T12:14:25.450Z,28.00
2018-05-09T12:16:53.058Z,28.10
2018-05-09T12:19:20.657Z,28.30
2018-05-09T12:21:48.173Z,28.40
2018-05-09T12:24:16.523Z,28.30
2018-05-09T12:26:44.038Z,28.30
